createdAt,value
2022-10-18T10:26:24.233Z,21.44
2022-10-18T10:28:52.226Z,21.58
2022-10-18T10:31:26.955Z,21.76
2022-10-18T10:34:00.113Z,21.88
2022-10-18T10:36:27.973Z,22.08
2022-10-18T10:39:16.239Z,22.40
2022-10-18T10:41:46.576Z,22.12
2022-10-18T10:44:16.718Z,21.95
2022-10-18T10:46:44.641Z,22.42
2022-10-18T10:52:25.864Z,23.36
2022-10-18T10:54:55.790Z,23.86
2022-10-18T10:57:34.759Z,24.26
2022-10-18T11:00:02.819Z,24.62
2022-10-18T11:02:32.168Z,24.95
2022-10-18T19:16:27.069Z,20.58
2022-10-18T19:18:57.504Z,20.59
2022-10-18T19:21:25.902Z,20.65
2022-10-18T19:23:54.317Z,20.65
2022-10-18T19:26:32.022Z,20.62
2022-10-18T19:29:04.685Z,20.58
2022-10-18T19:31:35.015Z,20.52
2022-10-18T19:34:03.519Z,20.52
2022-10-18T19:36:31.375Z,20.50
2022-10-18T19:38:59.280Z,20.46
2022-10-18T19:41:28.761Z,20.45
2022-10-18T19:43:56.867Z,20.43
2022-10-18T19:46:24.771Z,20.42
2022-10-18T19:48:54.325Z,20.45
2022-10-18T19:51:25.521Z,20.43
2022-10-18T19:53:55.787Z,20.44
2022-10-18T19:56:24.274Z,20.41
2022-10-18T19:58:52.121Z,20.38
2022-10-18T20:01:20.565Z,20.36
2022-10-18T20:03:48.514Z,20.38
2022-10-18T20:06:17.774Z,20.34
2022-10-18T20:08:45.764Z,20.35
2022-10-18T20:11:14.755Z,20.31
2022-10-18T20:13:42.690Z,20.31
2022-10-18T20:16:11.529Z,20.30
2022-10-18T20:18:39.458Z,20.31
2022-10-18T20:21:08.030Z,20.31
2022-10-18T20:23:38.046Z,20.32
2022-10-18T20:26:07.072Z,20.28
2022-10-18T20:28:35.042Z,20.35
2022-10-18T20:31:04.191Z,20.35
2022-10-18T20:33:32.226Z,20.38
2022-10-18T20:36:03.913Z,20.39
2022-10-18T20:38:33.092Z,20.37
2022-10-18T20:41:06.592Z,20.35
2022-10-18T20:43:34.624Z,20.32
2022-10-18T20:46:02.858Z,20.28
2022-10-18T20:48:31.113Z,20.22
2022-10-18T20:50:59.007Z,20.19
2022-10-18T20:53:26.873Z,20.19
2022-10-18T20:56:03.470Z,20.14
2022-10-18T20:58:32.852Z,20.11
2022-10-18T21:01:06.460Z,20.08
2022-10-18T21:03:34.444Z,20.04
2022-10-18T21:06:02.371Z,20.07
2022-10-18T21:08:30.466Z,20.02
2022-10-18T21:10:58.434Z,20.05
2022-10-18T21:13:26.385Z,20.04
2022-10-18T21:15:58.626Z,20.04
2022-10-18T21:18:26.720Z,20.01
2022-10-18T21:20:54.603Z,20.01
2022-10-18T21:23:22.640Z,20.00
2022-10-18T21:25:50.664Z,19.99
2022-10-18T21:28:18.700Z,20.01
2022-10-18T21:30:46.607Z,20.01
2022-10-18T21:33:15.872Z,20.01
2022-10-18T21:35:43.758Z,20.03
2022-10-18T21:38:11.989Z,20.04
2022-10-18T21:40:44.522Z,20.00
2022-10-18T21:43:12.660Z,19.99
2022-10-18T21:45:40.526Z,19.94
2022-10-18T21:48:08.609Z,19.96
2022-10-18T21:50:37.872Z,19.95
2022-10-18T21:53:05.768Z,19.96
2022-10-18T21:55:33.635Z,19.93
2022-10-18T21:58:01.465Z,19.96
2022-10-18T22:00:29.344Z,19.95
2022-10-18T22:03:07.720Z,19.97
2022-10-18T22:05:36.940Z,19.98
2022-10-18T22:08:04.920Z,20.00
2022-10-18T22:10:32.870Z,19.97
2022-10-18T22:13:00.765Z,19.99
2022-10-18T22:15:28.690Z,20.01
2022-10-18T22:17:56.667Z,20.02
2022-10-18T22:20:24.514Z,20.03
2022-10-18T22:22:55.758Z,20.03
2022-10-18T22:25:23.664Z,20.09
2022-10-18T22:27:51.543Z,20.10
2022-10-18T22:30:19.429Z,20.15
2022-10-18T22:32:47.338Z,20.20
2022-10-18T22:35:15.439Z,20.28
2022-10-18T22:37:43.310Z,20.34
2022-10-18T22:40:13.314Z,20.37
2022-10-18T22:42:41.212Z,20.39
2022-10-18T22:45:10.028Z,20.39
2022-10-18T22:47:38.052Z,20.39
2022-10-18T22:50:06.664Z,20.37
2022-10-18T22:52:34.769Z,20.37
2022-10-18T22:55:02.863Z,20.39
2022-10-18T22:57:32.151Z,20.40
2022-10-18T23:00:00.105Z,20.42
2022-10-18T23:02:27.984Z,20.41
2022-10-18T23:04:55.984Z,20.38
2022-10-18T23:07:23.868Z,20.24
2022-10-18T23:09:51.757Z,20.12
2022-10-18T23:12:20.152Z,20.03
2022-10-18T23:14:49.741Z,19.98
2022-10-18T23:17:17.653Z,19.89
2022-10-18T23:19:45.540Z,19.87
2022-10-18T23:22:14.961Z,19.84
2022-10-18T23:24:44.270Z,19.85
2022-10-18T23:27:12.149Z,19.84
2022-10-18T23:29:40.062Z,19.80
2022-10-18T23:32:09.337Z,19.81
2022-10-18T23:34:37.184Z,19.85
2022-10-18T23:37:05.090Z,19.88
2022-10-18T23:39:32.938Z,19.90
2022-10-18T23:42:00.832Z,19.92
2022-10-18T23:44:28.693Z,19.92
2022-10-18T23:46:56.629Z,19.90
2022-10-18T23:49:25.955Z,19.89
2022-10-18T23:51:53.861Z,19.89
2022-10-18T23:54:21.928Z,19.86
2022-10-18T23:56:49.813Z,19.84
2022-10-18T23:59:17.676Z,19.82
